createdAt,value
2022-10-21T03:16:51.515Z,9.30
2022-10-21T03:22:28.376Z,9.43
2022-10-21T03:27:51.007Z,8.55
2022-10-21T03:39:17.298Z,8.80
2022-10-21T04:19:14.450Z,11.05
2022-10-21T04:24:34.623Z,11.82
2022-10-21T04:29:48.557Z,11.05
2022-10-21T04:34:51.232Z,13.55
2022-10-21T04:40:08.622Z,12.73
2022-10-21T04:51:21.622Z,11.50
2022-10-21T05:02:50.469Z,13.43
2022-10-21T05:08:23.349Z,13.30
2022-10-21T05:13:34.171Z,14.57
2022-10-21T05:18:42.567Z,15.82
2022-10-21T05:36:56.771Z,15.70
2022-10-21T05:42:07.549Z,16.38
2022-10-21T05:48:29.300Z,19.17
2022-10-21T06:10:41.842Z,18.08
2022-10-21T06:15:51.122Z,18.17
2022-10-21T06:20:56.306Z,15.60
2022-10-21T06:38:22.889Z,6.45
2022-10-21T06:43:25.273Z,5.75
2022-10-21T06:48:27.711Z,4.50
2022-10-21T06:53:31.246Z,4.43
2022-10-21T06:58:41.668Z,4.25
2022-10-21T07:03:50.320Z,4.57
2022-10-21T07:09:00.044Z,4.97
2022-10-21T07:14:02.695Z,4.60
2022-10-21T07:19:14.523Z,4.07
2022-10-21T07:24:22.126Z,4.10
2022-10-21T07:29:25.031Z,4.18
2022-10-21T07:39:53.192Z,4.03
2022-10-21T07:45:05.094Z,4.45
2022-10-21T07:50:08.071Z,3.60
2022-10-21T07:55:16.939Z,2.95
2022-10-21T08:00:55.458Z,3.40
2022-10-21T08:06:05.816Z,3.28
2022-10-21T08:11:08.803Z,3.28
2022-10-21T08:16:14.335Z,3.25
2022-10-21T08:21:17.147Z,3.60
2022-10-21T08:49:30.844Z,4.40
2022-10-21T08:54:47.415Z,3.40
2022-10-21T08:59:52.393Z,2.92
2022-10-21T09:05:21.588Z,3.90
2022-10-21T09:10:51.726Z,3.13
2022-10-21T09:16:24.689Z,3.22
2022-10-21T09:22:16.384Z,7.43
2022-10-21T09:27:32.104Z,3.30
2022-10-21T09:32:43.390Z,3.15
2022-10-21T09:38:10.026Z,3.10
2022-10-21T09:43:23.801Z,11.18
2022-10-21T09:54:41.823Z,14.98
2022-10-21T09:59:55.597Z,18.55
2022-10-21T10:04:57.974Z,5.35
2022-10-21T10:10:00.229Z,2.97
2022-10-21T10:15:26.962Z,3.88
2022-10-21T10:20:31.725Z,3.00
2022-10-21T10:25:37.742Z,2.90
2022-10-21T10:30:43.026Z,2.53
2022-10-21T10:35:53.067Z,3.20
2022-10-21T10:41:05.619Z,2.75
2022-10-21T10:46:10.511Z,2.67
2022-10-21T10:51:29.349Z,3.58
2022-10-21T10:56:38.426Z,4.88
2022-10-21T11:01:57.644Z,5.03
2022-10-21T11:07:08.269Z,6.43
2022-10-21T11:12:22.434Z,4.78
2022-10-21T11:17:46.367Z,3.20
2022-10-21T11:33:50.389Z,6.35
2022-10-21T11:39:22.006Z,18.15
2022-10-21T11:44:30.118Z,9.10
2022-10-21T11:49:44.396Z,8.88
2022-10-21T11:55:16.374Z,8.00
2022-10-21T12:00:26.809Z,6.85
2022-10-21T12:05:37.129Z,2.80
2022-10-21T12:11:01.500Z,3.20
2022-10-21T12:16:11.976Z,3.15
2022-10-21T12:21:23.889Z,2.95
2022-10-21T12:26:48.768Z,2.72
2022-10-21T12:32:18.861Z,2.40
2022-10-21T12:37:44.318Z,2.58
2022-10-21T12:42:58.650Z,2.63
2022-10-21T12:48:01.949Z,2.78
2022-10-21T12:53:16.270Z,2.45
2022-10-21T12:58:34.366Z,4.07
2022-10-21T13:03:45.956Z,4.18
2022-10-21T13:08:54.755Z,2.70
2022-10-21T13:14:19.959Z,2.60
2022-10-21T13:19:24.016Z,3.42
2022-10-21T13:24:30.847Z,2.40
2022-10-21T13:29:47.377Z,3.60
2022-10-21T13:34:57.418Z,4.38
2022-10-21T13:40:04.437Z,3.60
2022-10-21T13:45:19.150Z,3.58
2022-10-21T13:50:31.238Z,22.52
2022-10-21T13:55:33.709Z,3.95
2022-10-21T14:00:36.105Z,3.53
2022-10-21T14:05:47.392Z,6.82
2022-10-21T14:10:49.580Z,4.32
2022-10-21T14:15:52.713Z,4.75
2022-10-21T14:20:55.144Z,3.90
2022-10-21T14:26:17.817Z,6.18
2022-10-21T14:31:20.532Z,38.70
2022-10-21T14:36:26.119Z,10.95
2022-10-21T14:41:37.959Z,5.40
2022-10-21T14:46:46.037Z,8.38
2022-10-21T14:51:48.882Z,7.32
2022-10-21T14:56:50.968Z,12.13
2022-10-21T15:01:53.426Z,5.78
2022-10-21T15:07:01.958Z,6.95
2022-10-21T15:12:19.861Z,9.68
2022-10-21T15:17:23.029Z,40.60
2022-10-21T15:22:34.207Z,7.25
2022-10-21T15:27:42.588Z,7.78
2022-10-21T15:32:45.884Z,9.00
2022-10-21T15:37:49.894Z,11.80
2022-10-21T15:42:52.123Z,10.93
2022-10-21T15:47:58.981Z,10.77
2022-10-21T15:53:01.188Z,26.52
2022-10-21T15:58:03.307Z,29.17
2022-10-21T16:03:05.596Z,21.48
2022-10-21T16:08:11.719Z,24.20
2022-10-21T16:13:17.218Z,21.73
2022-10-21T16:18:19.567Z,23.30
2022-10-21T16:23:21.800Z,25.45
2022-10-21T16:28:23.839Z,22.40
2022-10-21T16:33:25.921Z,33.50
2022-10-21T16:38:29.273Z,34.95
2022-10-21T16:43:31.557Z,33.08
2022-10-21T16:48:33.750Z,48.88
2022-10-21T16:53:35.842Z,45.75
2022-10-21T16:58:38.081Z,42.28
2022-10-21T17:03:40.342Z,26.67
2022-10-21T17:08:43.170Z,35.00
2022-10-21T17:13:45.898Z,31.33
2022-10-21T17:18:48.806Z,26.95
2022-10-21T17:23:52.057Z,26.85
2022-10-21T17:28:54.300Z,32.50
2022-10-21T17:34:07.718Z,31.10
2022-10-21T17:39:09.855Z,39.95
2022-10-21T17:44:13.376Z,36.58
2022-10-21T17:49:15.834Z,34.08
2022-10-21T17:54:21.521Z,33.35
2022-10-21T17:59:27.119Z,26.88
2022-10-21T18:04:29.221Z,24.20
2022-10-21T18:09:31.298Z,20.65
2022-10-21T18:14:33.731Z,19.48
2022-10-21T18:19:36.434Z,20.13
2022-10-21T18:26:52.332Z,22.23
2022-10-21T18:31:54.705Z,21.35
2022-10-21T18:36:59.697Z,25.77
2022-10-21T18:42:01.823Z,32.38
2022-10-21T18:47:04.157Z,26.45
2022-10-21T18:52:06.295Z,26.02
2022-10-21T18:57:10.356Z,24.42
2022-10-21T19:02:20.628Z,21.80
2022-10-21T19:07:22.979Z,24.38
2022-10-21T19:12:25.042Z,23.20
2022-10-21T19:17:27.722Z,22.27
2022-10-21T19:27:38.276Z,20.38
2022-10-21T19:32:41.145Z,19.17
2022-10-21T19:37:43.442Z,19.23
2022-10-21T19:48:12.205Z,18.63
2022-10-21T19:53:15.715Z,18.27
2022-10-21T19:58:18.048Z,18.23
2022-10-21T20:03:20.181Z,19.30
2022-10-21T20:08:22.475Z,18.80
2022-10-21T20:13:24.555Z,21.15
2022-10-21T20:18:27.916Z,19.83
2022-10-21T20:23:30.860Z,19.38
2022-10-21T20:28:33.360Z,19.00
2022-10-21T20:33:38.391Z,18.63
2022-10-21T20:38:40.892Z,17.65
2022-10-21T20:43:43.183Z,16.27
2022-10-21T20:48:48.312Z,16.90
2022-10-21T20:53:54.144Z,17.25
2022-10-21T20:58:58.037Z,17.85
2022-10-21T21:04:05.451Z,19.33
2022-10-21T21:09:37.762Z,21.15
2022-10-21T21:14:30.607Z,17.83
2022-10-21T21:19:32.813Z,16.00
2022-10-21T21:24:34.875Z,14.32
2022-10-21T21:29:37.018Z,13.90
2022-10-21T21:34:39.383Z,15.18
2022-10-21T21:39:41.793Z,15.32
2022-10-21T21:44:44.034Z,15.75
2022-10-21T21:49:46.142Z,14.90
2022-10-21T21:54:49.463Z,14.52
2022-10-21T21:59:51.658Z,13.50
2022-10-21T22:04:53.829Z,14.10
2022-10-21T22:09:56.172Z,14.38
2022-10-21T22:14:58.463Z,14.55
2022-10-21T22:20:00.674Z,14.85
2022-10-21T22:25:07.001Z,15.32
2022-10-21T22:30:11.679Z,14.68
2022-10-21T22:35:14.187Z,13.65
2022-10-21T22:40:16.385Z,11.65
2022-10-21T22:45:18.437Z,10.88
2022-10-21T22:50:20.787Z,13.02
2022-10-21T22:55:22.846Z,10.80
2022-10-21T23:00:24.934Z,11.60
2022-10-21T23:05:27.193Z,11.13
2022-10-21T23:10:29.287Z,11.50
2022-10-21T23:15:31.501Z,11.93
2022-10-21T23:20:33.767Z,10.10
2022-10-21T23:25:36.294Z,10.52
2022-10-21T23:30:38.862Z,10.63
2022-10-21T23:35:41.235Z,11.25
2022-10-21T23:40:43.392Z,10.73
2022-10-21T23:45:45.755Z,10.73
2022-10-21T23:50:47.924Z,11.27
2022-10-21T23:55:50.114Z,10.60
